Time;durP1;ratioP1;P1;durP2;ratioP2;P2;SDS_P1;SDS_P2;PMS_P1;PMS_P2;Temp;Humidity;BMP_temperature;BMP_pressure;BME280_temperature;BME280_humidity;BME280_pressure;Samples;Min_cycle;Max_cycle;Signal;HPM_P1;HPM_P2
2023/06/03 00:02:21;;;;;;;4.35;3.95;;;;;;;;;;5139431;27;20311;-63
2023/06/03 00:04:50;;;;;;;3.97;3.65;;;;;;;;;;5139542;27;20494;-62
2023/06/03 00:07:18;;;;;;;4.38;3.97;;;;;;;;;;5139826;27;20301;-62
2023/06/03 00:09:46;;;;;;;3.72;3.42;;;;;;;;;;5139119;27;20222;-63
2023/06/03 00:12:13;;;;;;;4.15;3.72;;;;;;;;;;5139419;27;20240;-63
2023/06/03 00:14:41;;;;;;;4.22;3.78;;;;;;;;;;5139096;27;20273;-63
2023/06/03 00:17:11;;;;;;;4.15;3.78;;;;;;;;;;5139047;27;20571;-62
2023/06/03 00:19:39;;;;;;;3.80;3.40;;;;;;;;;;5139161;27;20206;-63
2023/06/03 00:22:08;;;;;;;4.07;3.70;;;;;;;;;;5138960;27;20229;-64
2023/06/03 00:24:36;;;;;;;4.75;3.53;;;;;;;;;;5138490;27;20213;-64
2023/06/03 00:27:03;;;;;;;4.03;3.65;;;;;;;;;;5138641;27;20213;-64
2023/06/03 00:29:31;;;;;;;3.80;3.50;;;;;;;;;;5138677;27;20325;-64
2023/06/03 00:31:58;;;;;;;3.88;3.58;;;;;;;;;;5138870;27;20202;-64
2023/06/03 00:34:26;;;;;;;4.20;3.80;;;;;;;;;;5138492;27;20202;-64
2023/06/03 00:36:53;;;;;;;4.18;3.78;;;;;;;;;;5139036;27;20251;-63
2023/06/03 00:39:23;;;;;;;4.43;3.95;;;;;;;;;;5138405;27;20229;-64
2023/06/03 00:41:50;;;;;;;3.95;3.65;;;;;;;;;;5138598;27;20601;-62
2023/06/03 00:44:18;;;;;;;4.03;3.60;;;;;;;;;;5138306;27;20202;-62
2023/06/03 00:46:45;;;;;;;4.72;3.70;;;;;;;;;;5138388;27;20210;-62
2023/06/03 00:49:13;;;;;;;3.97;3.60;;;;;;;;;;5138290;27;20276;-63
2023/06/03 00:51:40;;;;;;;3.90;3.60;;;;;;;;;;5138358;27;20266;-63
2023/06/03 00:54:08;;;;;;;5.18;4.57;;;;;;;;;;5138265;27;20198;-63
2023/06/03 00:56:43;;;;;;;4.07;3.67;;;;;;;;;;5138719;27;20509;-63
2023/06/03 00:59:12;;;;;;;4.93;3.78;;;;;;;;;;5138614;27;20202;-62
2023/06/03 01:01:42;;;;;;;4.05;3.70;;;;;;;;;;5138693;27;20213;-63
2023/06/03 01:04:10;;;;;;;4.28;3.88;;;;;;;;;;5138360;27;20304;-63
2023/06/03 01:06:45;;;;;;;3.75;3.45;;;;;;;;;;5137970;27;20206;-63
2023/06/03 01:09:16;;;;;;;3.92;3.63;;;;;;;;;;5136714;27;20226;-62
2023/06/03 01:11:49;;;;;;;3.97;3.67;;;;;;;;;;5137864;27;20220;-62
2023/06/03 01:14:17;;;;;;;3.72;3.40;;;;;;;;;;5137803;27;20206;-63
2023/06/03 01:16:47;;;;;;;3.75;3.45;;;;;;;;;;5138128;27;20202;-62
2023/06/03 01:19:21;;;;;;;3.65;3.17;;;;;;;;;;5138160;27;20285;-62
2023/06/03 01:21:49;;;;;;;4.00;3.65;;;;;;;;;;5137770;28;20202;-62
2023/06/03 01:24:24;;;;;;;3.83;3.53;;;;;;;;;;5137970;28;20224;-63
2023/06/03 01:26:52;;;;;;;3.55;3.25;;;;;;;;;;5138295;28;20201;-63
2023/06/03 01:29:19;;;;;;;4.78;3.80;;;;;;;;;;5138158;28;20230;-63
2023/06/03 01:31:47;;;;;;;3.97;3.65;;;;;;;;;;5138169;28;20241;-63
2023/06/03 01:34:15;;;;;;;3.60;3.30;;;;;;;;;;5137866;28;20202;-62
2023/06/03 01:36:43;;;;;;;3.90;3.50;;;;;;;;;;5137750;28;20295;-62
2023/06/03 01:39:11;;;;;;;3.83;3.53;;;;;;;;;;5138095;28;20266;-62
2023/06/03 01:41:42;;;;;;;3.65;3.35;;;;;;;;;;5137768;28;20202;-62
2023/06/03 01:44:09;;;;;;;3.83;3.53;;;;;;;;;;5137827;28;20206;-63
2023/06/03 01:46:37;;;;;;;4.20;3.80;;;;;;;;;;5137687;28;20202;-62
2023/06/03 01:49:08;;;;;;;3.78;3.47;;;;;;;;;;5137983;28;20257;-62
2023/06/03 01:51:36;;;;;;;3.53;3.22;;;;;;;;;;5137653;28;20237;-62
2023/06/03 01:54:03;;;;;;;4.53;3.60;;;;;;;;;;5137689;28;20206;-65
2023/06/03 01:56:31;;;;;;;3.95;3.60;;;;;;;;;;5137362;28;20209;-63
2023/06/03 01:59:00;;;;;;;3.85;3.53;;;;;;;;;;5138245;28;20278;-63
2023/06/03 02:01:28;;;;;;;3.50;3.20;;;;;;;;;;5137925;28;20229;-63
2023/06/03 02:03:56;;;;;;;3.88;3.47;;;;;;;;;;5137706;28;20207;-63
2023/06/03 02:06:23;;;;;;;3.58;3.28;;;;;;;;;;5137557;28;20202;-62
2023/06/03 02:08:51;;;;;;;3.75;3.40;;;;;;;;;;5137808;28;20582;-62
2023/06/03 02:11:18;;;;;;;3.30;3.10;;;;;;;;;;5137055;28;20203;-62
2023/06/03 02:13:45;;;;;;;3.40;3.00;;;;;;;;;;5136769;28;20285;-64
2023/06/03 02:16:15;;;;;;;3.00;2.70;;;;;;;;;;5136837;28;20596;-64
2023/06/03 02:18:42;;;;;;;3.08;2.88;;;;;;;;;;5137234;28;20213;-62
2023/06/03 02:21:10;;;;;;;3.22;2.92;;;;;;;;;;5139513;27;20267;-63
2023/06/03 02:23:37;;;;;;;3.22;3.03;;;;;;;;;;5141328;27;20230;-63
2023/06/03 02:26:05;;;;;;;3.17;2.92;;;;;;;;;;5141145;27;20202;-63
2023/06/03 02:28:32;;;;;;;3.42;3.00;;;;;;;;;;5140894;27;20292;-64
2023/06/03 02:31:00;;;;;;;3.40;3.10;;;;;;;;;;5140980;27;20610;-63
2023/06/03 02:33:28;;;;;;;3.17;2.85;;;;;;;;;;5141136;27;20202;-64
2023/06/03 02:35:56;;;;;;;3.58;3.28;;;;;;;;;;5140923;27;20236;-64
2023/06/03 02:38:23;;;;;;;3.47;3.17;;;;;;;;;;5141165;27;20202;-62
2023/06/03 02:40:51;;;;;;;3.20;2.90;;;;;;;;;;5140538;27;20242;-63
2023/06/03 02:43:19;;;;;;;3.08;2.78;;;;;;;;;;5140721;27;20244;-64
2023/06/03 02:45:46;;;;;;;3.20;2.85;;;;;;;;;;5140709;27;20255;-64
2023/06/03 02:48:13;;;;;;;3.13;2.85;;;;;;;;;;5140724;27;20252;-63
2023/06/03 02:50:42;;;;;;;2.53;2.33;;;;;;;;;;5140594;27;20524;-63
2023/06/03 02:53:11;;;;;;;2.80;2.58;;;;;;;;;;5140574;27;20249;-65
2023/06/03 02:55:39;;;;;;;2.70;2.50;;;;;;;;;;5140428;27;20477;-64
2023/06/03 02:58:07;;;;;;;3.42;2.85;;;;;;;;;;5140976;27;20538;-63
2023/06/03 03:00:34;;;;;;;2.88;2.65;;;;;;;;;;5140510;27;20259;-63
2023/06/03 03:03:02;;;;;;;2.80;2.60;;;;;;;;;;5140579;27;20259;-64
2023/06/03 03:05:30;;;;;;;2.80;2.40;;;;;;;;;;5140604;27;20198;-64
2023/06/03 03:07:59;;;;;;;3.10;2.88;;;;;;;;;;5140189;27;20656;-62
2023/06/03 03:10:27;;;;;;;2.60;2.40;;;;;;;;;;5140204;27;20226;-62
2023/06/03 03:12:54;;;;;;;2.35;2.20;;;;;;;;;;5140280;27;20203;-63
2023/06/03 03:15:22;;;;;;;2.40;2.20;;;;;;;;;;5139839;27;20290;-63
2023/06/03 03:17:49;;;;;;;2.83;2.60;;;;;;;;;;5139349;27;20503;-64
2023/06/03 03:20:17;;;;;;;2.50;2.13;;;;;;;;;;5139941;27;20310;-62
2023/06/03 03:22:45;;;;;;;4.28;2.35;;;;;;;;;;5139684;27;20208;-62
2023/06/03 03:25:14;;;;;;;2.50;2.30;;;;;;;;;;5139943;27;20300;-62
2023/06/03 03:27:42;;;;;;;2.58;2.30;;;;;;;;;;5140042;27;20597;-64
2023/06/03 03:30:10;;;;;;;2.42;2.20;;;;;;;;;;5139565;27;20626;-62
2023/06/03 03:32:37;;;;;;;3.25;2.28;;;;;;;;;;5138785;27;20237;-62
2023/06/03 03:35:13;;;;;;;2.22;2.03;;;;;;;;;;5139550;27;20241;-63
2023/06/03 03:37:41;;;;;;;2.33;2.13;;;;;;;;;;5139818;27;20209;-63
2023/06/03 03:40:13;;;;;;;7.53;2.63;;;;;;;;;;5139602;27;20209;-63
2023/06/03 03:42:41;;;;;;;2.50;2.30;;;;;;;;;;5139533;27;20198;-63
2023/06/03 03:45:16;;;;;;;3.05;2.22;;;;;;;;;;5139408;27;20524;-63
2023/06/03 03:47:44;;;;;;;2.72;2.53;;;;;;;;;;5139333;27;20213;-64
2023/06/03 03:50:16;;;;;;;2.40;2.20;;;;;;;;;;5139388;27;20218;-63
2023/06/03 03:52:44;;;;;;;2.28;2.08;;;;;;;;;;5139317;27;20306;-64
2023/06/03 03:55:12;;;;;;;2.40;2.20;;;;;;;;;;5138949;27;20234;-63
2023/06/03 03:57:41;;;;;;;2.50;2.10;;;;;;;;;;5139294;27;20202;-63
2023/06/03 04:00:11;;;;;;;2.00;1.90;;;;;;;;;;5138848;27;20248;-63
2023/06/03 04:02:41;;;;;;;2.17;1.98;;;;;;;;;;5139097;27;20245;-62
2023/06/03 04:05:13;;;;;;;3.33;2.00;;;;;;;;;;5139078;27;20254;-62
2023/06/03 04:07:42;;;;;;;2.42;2.13;;;;;;;;;;5138860;27;20267;-63
2023/06/03 04:10:11;;;;;;;2.75;2.10;;;;;;;;;;5138648;27;20230;-64
2023/06/03 04:12:38;;;;;;;3.60;2.60;;;;;;;;;;5138849;27;20206;-63
2023/06/03 04:15:06;;;;;;;2.10;1.85;;;;;;;;;;5138670;27;20287;-63
2023/06/03 04:17:37;;;;;;;2.60;2.40;;;;;;;;;;5139139;27;20534;-63
2023/06/03 04:20:09;;;;;;;2.97;2.55;;;;;;;;;;5138610;27;20202;-64
2023/06/03 04:22:37;;;;;;;2.67;2.33;;;;;;;;;;5138104;27;20488;-64
2023/06/03 04:25:08;;;;;;;2.17;2.00;;;;;;;;;;5138075;27;20202;-64
2023/06/03 04:27:36;;;;;;;2.45;2.25;;;;;;;;;;5138658;27;20202;-63
2023/06/03 04:30:04;;;;;;;2.50;2.30;;;;;;;;;;5138643;27;20320;-64
2023/06/03 04:32:31;;;;;;;2.50;2.30;;;;;;;;;;5138886;27;20225;-64
2023/06/03 04:35:00;;;;;;;2.53;2.33;;;;;;;;;;5138098;27;20261;-64
2023/06/03 04:37:28;;;;;;;2.40;2.20;;;;;;;;;;5138579;27;20209;-64
2023/06/03 04:39:58;;;;;;;2.83;2.40;;;;;;;;;;5138197;27;20658;-63
2023/06/03 04:42:26;;;;;;;2.63;2.33;;;;;;;;;;5138308;27;20577;-63
2023/06/03 04:45:00;;;;;;;2.88;2.60;;;;;;;;;;5138348;27;20515;-63
2023/06/03 04:47:28;;;;;;;3.17;2.13;;;;;;;;;;5138219;27;20202;-63
2023/06/03 04:49:58;;;;;;;3.03;2.70;;;;;;;;;;5137891;27;20210;-63
2023/06/03 04:52:27;;;;;;;2.88;2.60;;;;;;;;;;5138030;27;20202;-63
2023/06/03 04:54:54;;;;;;;2.88;2.47;;;;;;;;;;5138184;27;20253;-63
2023/06/03 04:57:22;;;;;;;2.53;2.22;;;;;;;;;;5138023;27;20228;-63
2023/06/03 04:59:50;;;;;;;2.67;2.47;;;;;;;;;;5137948;27;20214;-63
2023/06/03 05:02:20;;;;;;;2.63;2.42;;;;;;;;;;5137630;27;20714;-64
2023/06/03 05:04:49;;;;;;;3.10;2.80;;;;;;;;;;5137824;27;20202;-62
2023/06/03 05:07:16;;;;;;;2.70;2.50;;;;;;;;;;5137680;27;20202;-63
2023/06/03 05:09:45;;;;;;;2.50;2.30;;;;;;;;;;5137668;27;20479;-62
2023/06/03 05:12:13;;;;;;;2.88;2.67;;;;;;;;;;5137868;27;20202;-63
2023/06/03 05:14:41;;;;;;;2.63;2.42;;;;;;;;;;5137907;27;20198;-63
2023/06/03 05:17:08;;;;;;;2.65;2.42;;;;;;;;;;5137697;27;20641;-63
2023/06/03 05:19:36;;;;;;;2.78;2.50;;;;;;;;;;5137891;27;20202;-64
2023/06/03 05:22:03;;;;;;;3.05;2.78;;;;;;;;;;5138050;27;20578;-64
2023/06/03 05:24:31;;;;;;;3.00;2.50;;;;;;;;;;5137781;28;20202;-64
2023/06/03 05:27:00;;;;;;;3.00;2.67;;;;;;;;;;5137842;28;20213;-64
2023/06/03 05:29:27;;;;;;;2.78;2.38;;;;;;;;;;5137715;28;20213;-63
2023/06/03 05:31:54;;;;;;;3.03;2.33;;;;;;;;;;5137471;28;20639;-64
2023/06/03 05:34:22;;;;;;;2.72;2.28;;;;;;;;;;5137576;28;20460;-64
2023/06/03 05:36:49;;;;;;;2.55;2.28;;;;;;;;;;5137730;28;20238;-63
2023/06/03 05:39:16;;;;;;;2.83;2.50;;;;;;;;;;5137412;28;20202;-62
2023/06/03 05:41:44;;;;;;;2.47;2.00;;;;;;;;;;5137279;28;20605;-64
2023/06/03 05:44:13;;;;;;;3.60;2.30;;;;;;;;;;5137478;28;20456;-64
2023/06/03 05:46:40;;;;;;;2.60;2.20;;;;;;;;;;5137631;28;20202;-64
2023/06/03 05:49:07;;;;;;;2.70;1.90;;;;;;;;;;5137431;28;20202;-64
2023/06/03 05:51:35;;;;;;;2.10;1.98;;;;;;;;;;5137450;28;20226;-64
2023/06/03 05:54:04;;;;;;;2.50;1.63;;;;;;;;;;5136932;28;20596;-64
2023/06/03 05:56:32;;;;;;;2.00;1.73;;;;;;;;;;5139802;27;20213;-63
2023/06/03 05:58:59;;;;;;;3.65;2.00;;;;;;;;;;5141452;27;20194;-63
2023/06/03 06:01:30;;;;;;;2.55;1.77;;;;;;;;;;5140951;27;20292;-63
2023/06/03 06:03:57;;;;;;;2.60;1.83;;;;;;;;;;5141059;27;20281;-63
2023/06/03 06:06:25;;;;;;;2.10;1.40;;;;;;;;;;5141347;27;20222;-62
2023/06/03 06:08:52;;;;;;;2.78;1.80;;;;;;;;;;5141087;27;20490;-63
2023/06/03 06:11:20;;;;;;;2.10;1.60;;;;;;;;;;5141021;27;20218;-65
2023/06/03 06:13:47;;;;;;;2.25;1.67;;;;;;;;;;5140492;27;20598;-63
2023/06/03 06:16:15;;;;;;;2.30;1.77;;;;;;;;;;5140836;27;20213;-63
2023/06/03 06:18:43;;;;;;;2.22;1.52;;;;;;;;;;5140252;27;20285;-63
2023/06/03 06:21:11;;;;;;;1.67;1.50;;;;;;;;;;5140653;27;20198;-63
2023/06/03 06:23:38;;;;;;;2.53;1.60;;;;;;;;;;5139791;27;20202;-63
2023/06/03 06:26:06;;;;;;;2.08;1.63;;;;;;;;;;5140544;27;20224;-64
2023/06/03 06:28:33;;;;;;;1.85;1.52;;;;;;;;;;5140353;27;20209;-64
2023/06/03 06:31:02;;;;;;;2.60;1.60;;;;;;;;;;5140469;27;20513;-64
2023/06/03 06:33:30;;;;;;;2.85;1.50;;;;;;;;;;5140121;27;20210;-64
2023/06/03 06:35:59;;;;;;;1.55;1.45;;;;;;;;;;5152671;27;20241;-64
2023/06/03 06:38:26;;;;;;;2.20;1.50;;;;;;;;;;5161110;27;20608;-64
2023/06/03 06:40:55;;;;;;;1.50;1.40;;;;;;;;;;5160970;27;20198;-64
2023/06/03 06:43:25;;;;;;;1.63;1.52;;;;;;;;;;5160177;27;20265;-64
2023/06/03 06:45:52;;;;;;;1.50;1.30;;;;;;;;;;5160539;27;20355;-63
2023/06/03 06:48:20;;;;;;;1.80;1.40;;;;;;;;;;5149274;27;20206;-63
2023/06/03 06:50:49;;;;;;;1.98;1.40;;;;;;;;;;5139853;27;20226;-63
2023/06/03 06:53:19;;;;;;;1.70;1.60;;;;;;;;;;5139685;27;20229;-63
2023/06/03 06:55:50;;;;;;;1.83;1.50;;;;;;;;;;5157184;27;20259;-64
2023/06/03 06:58:18;;;;;;;2.25;1.25;;;;;;;;;;5160750;27;20209;-64
2023/06/03 07:00:45;;;;;;;1.75;1.50;;;;;;;;;;5160326;27;20204;-63
2023/06/03 07:03:14;;;;;;;2.10;1.83;;;;;;;;;;5160455;27;20213;-63
2023/06/03 07:05:41;;;;;;;3.55;1.90;;;;;;;;;;5160242;27;20523;-64
2023/06/03 07:08:09;;;;;;;2.20;1.40;;;;;;;;;;5160075;27;20202;-63
2023/06/03 07:10:38;;;;;;;1.73;1.52;;;;;;;;;;5160765;27;20201;-63
2023/06/03 07:13:07;;;;;;;2.40;1.55;;;;;;;;;;5160348;27;20230;-63
2023/06/03 07:15:35;;;;;;;1.80;1.60;;;;;;;;;;5160438;27;20244;-63
2023/06/03 07:18:02;;;;;;;2.42;1.40;;;;;;;;;;5160795;27;20197;-64
2023/06/03 07:20:32;;;;;;;2.22;1.90;;;;;;;;;;5160438;27;20208;-64
2023/06/03 07:22:59;;;;;;;2.17;1.92;;;;;;;;;;5160243;27;20654;-64
2023/06/03 07:25:36;;;;;;;2.47;1.70;;;;;;;;;;5159857;27;20237;-64
2023/06/03 07:28:06;;;;;;;1.85;1.67;;;;;;;;;;5160074;27;20201;-64
2023/06/03 07:30:36;;;;;;;2.53;1.77;;;;;;;;;;5160114;27;20274;-64
2023/06/03 07:33:04;;;;;;;2.55;1.80;;;;;;;;;;5160568;27;20241;-64
2023/06/03 07:35:31;;;;;;;2.45;1.77;;;;;;;;;;5160233;27;20528;-63
2023/06/03 07:37:59;;;;;;;3.15;2.03;;;;;;;;;;5159721;27;20297;-63
2023/06/03 07:40:33;;;;;;;2.40;1.80;;;;;;;;;;5158953;27;20193;-64
2023/06/03 07:43:00;;;;;;;3.33;2.20;;;;;;;;;;5159199;27;20208;-63
2023/06/03 07:45:29;;;;;;;2.95;1.95;;;;;;;;;;5159603;27;20323;-64
2023/06/03 07:47:58;;;;;;;2.75;2.15;;;;;;;;;;5159377;27;20250;-64
2023/06/03 07:50:26;;;;;;;2.72;1.90;;;;;;;;;;5159725;27;20798;-64
2023/06/03 07:52:57;;;;;;;2.13;1.92;;;;;;;;;;5159570;27;20222;-64
2023/06/03 07:55:25;;;;;;;3.67;2.00;;;;;;;;;;5159111;27;20206;-64
2023/06/03 07:57:53;;;;;;;2.67;2.20;;;;;;;;;;5158721;27;20202;-64
2023/06/03 08:00:20;;;;;;;2.55;1.85;;;;;;;;;;5159361;27;20208;-64
2023/06/03 08:02:49;;;;;;;2.30;2.10;;;;;;;;;;5159398;27;20212;-64
2023/06/03 08:05:17;;;;;;;2.95;1.90;;;;;;;;;;5159657;27;20202;-64
2023/06/03 08:07:45;;;;;;;2.28;2.00;;;;;;;;;;5158506;27;20262;-63
2023/06/03 08:10:23;;;;;;;2.65;1.90;;;;;;;;;;5158951;27;20765;-64
2023/06/03 08:12:50;;;;;;;2.97;1.77;;;;;;;;;;5159151;27;20268;-64
2023/06/03 08:15:26;;;;;;;3.28;1.80;;;;;;;;;;5159200;27;20237;-63
2023/06/03 08:17:56;;;;;;;3.38;2.22;;;;;;;;;;5158961;27;20256;-63
2023/06/03 08:20:27;;;;;;;3.70;1.90;;;;;;;;;;5159138;27;20574;-63
2023/06/03 08:22:55;;;;;;;4.00;2.35;;;;;;;;;;5158916;27;20198;-62
2023/06/03 08:25:23;;;;;;;4.35;2.15;;;;;;;;;;5159090;27;20262;-63
2023/06/03 08:27:50;;;;;;;5.45;2.42;;;;;;;;;;5159035;27;20201;-63
2023/06/03 08:30:20;;;;;;;2.72;1.98;;;;;;;;;;5158937;27;20213;-63
2023/06/03 08:32:47;;;;;;;2.38;2.05;;;;;;;;;;5159016;27;20228;-62
2023/06/03 08:35:17;;;;;;;2.10;1.90;;;;;;;;;;5158442;27;20229;-63
2023/06/03 08:37:45;;;;;;;3.25;2.17;;;;;;;;;;5158463;27;20608;-63
2023/06/03 08:40:13;;;;;;;2.35;2.00;;;;;;;;;;5158478;27;20248;-62
2023/06/03 08:42:42;;;;;;;2.38;2.03;;;;;;;;;;5158563;27;20206;-62
2023/06/03 08:45:10;;;;;;;2.78;1.98;;;;;;;;;;5159114;27;20206;-63
2023/06/03 08:47:43;;;;;;;3.63;2.10;;;;;;;;;;5158976;27;20501;-63
2023/06/03 08:50:11;;;;;;;4.10;2.22;;;;;;;;;;5158217;27;20201;-62
2023/06/03 08:52:41;;;;;;;3.90;2.13;;;;;;;;;;5157792;27;20236;-63
2023/06/03 08:55:08;;;;;;;2.22;1.88;;;;;;;;;;5157590;27;20201;-62
2023/06/03 08:57:36;;;;;;;3.28;1.92;;;;;;;;;;5158532;27;20212;-63
2023/06/03 09:00:06;;;;;;;2.50;1.98;;;;;;;;;;5158286;27;20520;-63
2023/06/03 09:02:35;;;;;;;3.80;1.80;;;;;;;;;;5157373;27;20223;-64
2023/06/03 09:05:03;;;;;;;2.30;1.73;;;;;;;;;;5157595;27;20550;-64
2023/06/03 09:07:32;;;;;;;2.13;1.88;;;;;;;;;;5157214;27;20713;-63
2023/06/03 09:10:03;;;;;;;2.05;1.73;;;;;;;;;;5157471;27;20715;-64
2023/06/03 09:12:31;;;;;;;2.45;2.08;;;;;;;;;;5157640;27;20221;-64
2023/06/03 09:14:59;;;;;;;2.50;1.70;;;;;;;;;;5157282;27;20198;-64
2023/06/03 09:17:27;;;;;;;2.08;1.80;;;;;;;;;;5156508;27;20761;-64
2023/06/03 09:19:57;;;;;;;2.08;1.75;;;;;;;;;;5157092;27;20266;-64
2023/06/03 09:22:25;;;;;;;2.08;1.70;;;;;;;;;;5157129;27;20208;-64
2023/06/03 09:24:52;;;;;;;2.40;1.92;;;;;;;;;;5157343;27;20201;-64
2023/06/03 09:27:21;;;;;;;2.20;1.88;;;;;;;;;;5135760;27;20252;-64
2023/06/03 09:29:49;;;;;;;2.63;1.85;;;;;;;;;;5115924;28;20211;-64
2023/06/03 09:32:16;;;;;;;2.28;1.77;;;;;;;;;;5119712;28;20219;-64
2023/06/03 09:34:45;;;;;;;1.98;1.80;;;;;;;;;;5118549;28;20224;-63
2023/06/03 09:37:12;;;;;;;2.20;1.55;;;;;;;;;;5100252;28;20222;-63
2023/06/03 09:39:40;;;;;;;1.80;1.70;;;;;;;;;;5099731;28;20265;-64
2023/06/03 09:42:08;;;;;;;3.28;1.60;;;;;;;;;;5100056;28;20199;-64
2023/06/03 09:44:41;;;;;;;2.15;1.52;;;;;;;;;;5100319;28;20238;-64
2023/06/03 09:47:09;;;;;;;2.72;1.70;;;;;;;;;;5099575;28;20199;-64
2023/06/03 09:49:37;;;;;;;1.90;1.75;;;;;;;;;;5099883;28;20204;-64
2023/06/03 09:52:07;;;;;;;2.85;1.48;;;;;;;;;;5099891;28;20326;-63
2023/06/03 09:54:35;;;;;;;1.90;1.35;;;;;;;;;;5099343;28;20576;-63
2023/06/03 09:57:11;;;;;;;2.28;1.60;;;;;;;;;;5098310;28;20204;-63
2023/06/03 09:59:38;;;;;;;2.13;1.20;;;;;;;;;;5098768;28;20234;-64
2023/06/03 10:02:12;;;;;;;1.55;1.45;;;;;;;;;;5098672;28;20203;-64
2023/06/03 10:04:40;;;;;;;2.85;1.73;;;;;;;;;;5098550;28;20211;-64
2023/06/03 10:07:11;;;;;;;2.40;1.35;;;;;;;;;;5099632;28;20558;-64
2023/06/03 10:09:39;;;;;;;3.08;1.83;;;;;;;;;;5098824;28;20207;-63
2023/06/03 10:12:07;;;;;;;2.10;1.20;;;;;;;;;;5099351;28;20504;-62
2023/06/03 10:14:34;;;;;;;1.98;1.60;;;;;;;;;;5107479;28;20203;-63
2023/06/03 10:17:03;;;;;;;1.40;1.10;;;;;;;;;;5119319;28;20222;-62
2023/06/03 10:19:34;;;;;;;1.88;1.67;;;;;;;;;;5119251;28;20606;-62
2023/06/03 10:22:01;;;;;;;2.08;1.40;;;;;;;;;;5119422;28;20199;-63
2023/06/03 10:24:30;;;;;;;2.25;1.35;;;;;;;;;;5118935;28;20202;-63
2023/06/03 10:26:58;;;;;;;2.10;1.50;;;;;;;;;;5119090;28;20462;-63
2023/06/03 10:29:26;;;;;;;1.52;1.40;;;;;;;;;;5119291;28;20203;-62
2023/06/03 10:31:54;;;;;;;1.55;1.30;;;;;;;;;;5118991;28;20307;-62
2023/06/03 10:34:22;;;;;;;2.55;1.60;;;;;;;;;;5119627;28;20221;-62
2023/06/03 10:36:57;;;;;;;1.70;1.52;;;;;;;;;;5138748;27;20238;-62
2023/06/03 10:39:25;;;;;;;1.60;1.50;;;;;;;;;;5139658;27;20202;-64
2023/06/03 10:41:54;;;;;;;2.60;1.50;;;;;;;;;;5138432;27;20198;-62
2023/06/03 10:44:21;;;;;;;2.60;1.70;;;;;;;;;;5139082;27;20222;-63
2023/06/03 10:46:53;;;;;;;2.65;1.40;;;;;;;;;;5140313;27;20492;-62
2023/06/03 10:49:21;;;;;;;2.03;1.63;;;;;;;;;;5139842;27;20209;-62
2023/06/03 10:51:55;;;;;;;2.05;1.60;;;;;;;;;;5139718;27;20232;-62
2023/06/03 10:54:31;;;;;;;2.13;1.40;;;;;;;;;;5140274;27;20492;-63
2023/06/03 10:57:03;;;;;;;2.45;1.30;;;;;;;;;;5139419;27;20194;-63
2023/06/03 10:59:40;;;;;;;2.45;1.30;;;;;;;;;;5139149;27;20214;-62
2023/06/03 11:02:07;;;;;;;3.15;1.30;;;;;;;;;;5139327;27;20242;-62
2023/06/03 11:04:36;;;;;;;2.63;1.30;;;;;;;;;;5139294;27;20206;-63
2023/06/03 11:07:04;;;;;;;1.08;0.98;;;;;;;;;;5139175;27;20289;-63
2023/06/03 11:09:34;;;;;;;3.03;1.25;;;;;;;;;;5139273;27;20482;-63
2023/06/03 11:12:09;;;;;;;3.67;1.25;;;;;;;;;;5138597;27;20466;-62
2023/06/03 11:14:55;;;;;;;2.10;1.50;;;;;;;;;;5138322;27;20209;-63
2023/06/03 11:17:26;;;;;;;1.73;1.30;;;;;;;;;;5137531;27;20198;-62
2023/06/03 11:19:55;;;;;;;1.30;1.20;;;;;;;;;;5138992;27;20236;-63
2023/06/03 11:22:42;;;;;;;2.05;1.60;;;;;;;;;;5138768;27;20217;-63
2023/06/03 11:25:27;;;;;;;1.38;1.08;;;;;;;;;;5138525;27;20214;-62
2023/06/03 11:27:54;;;;;;;1.27;1.15;;;;;;;;;;5137751;27;20818;-62
2023/06/03 11:30:21;;;;;;;1.90;1.40;;;;;;;;;;5138245;27;20198;-63
2023/06/03 11:33:10;;;;;;;1.48;1.23;;;;;;;;;;5138238;27;20228;-63
2023/06/03 11:35:37;;;;;;;1.23;1.13;;;;;;;;;;5137891;27;20273;-62
2023/06/03 11:38:05;;;;;;;2.33;1.30;;;;;;;;;;5138358;27;20217;-64
2023/06/03 11:40:45;;;;;;;2.83;1.20;;;;;;;;;;5138804;27;20210;-63
2023/06/03 11:43:13;;;;;;;1.42;1.10;;;;;;;;;;5138249;27;20483;-63
2023/06/03 11:45:40;;;;;;;2.28;1.30;;;;;;;;;;5138513;27;20466;-63
2023/06/03 11:48:09;;;;;;;2.20;1.10;;;;;;;;;;5137806;27;20293;-63
2023/06/03 11:50:46;;;;;;;1.60;1.23;;;;;;;;;;5137333;27;20567;-62
2023/06/03 11:53:32;;;;;;;4.55;1.27;;;;;;;;;;5135011;27;20225;-62
2023/06/03 11:56:05;;;;;;;1.83;1.10;;;;;;;;;;5136481;27;20210;-63
2023/06/03 11:58:33;;;;;;;2.40;1.15;;;;;;;;;;5137470;27;20204;-63
2023/06/03 12:01:07;;;;;;;1.35;1.23;;;;;;;;;;5137923;27;20202;-62
2023/06/03 12:03:35;;;;;;;3.35;1.20;;;;;;;;;;5137791;27;20198;-62
2023/06/03 12:06:04;;;;;;;1.45;1.10;;;;;;;;;;5136879;27;20540;-63
2023/06/03 12:08:45;;;;;;;2.72;1.20;;;;;;;;;;5137197;27;20206;-64
2023/06/03 12:11:26;;;;;;;2.50;1.30;;;;;;;;;;5136934;27;20301;-63
2023/06/03 12:13:53;;;;;;;1.20;0.98;;;;;;;;;;5137155;27;20287;-64
2023/06/03 12:16:27;;;;;;;1.80;1.20;;;;;;;;;;5137257;27;20255;-63
2023/06/03 12:18:55;;;;;;;4.75;1.20;;;;;;;;;;5137061;27;20202;-63
2023/06/03 12:21:22;;;;;;;1.52;1.23;;;;;;;;;;5137631;27;20482;-63
2023/06/03 12:23:50;;;;;;;2.22;1.10;;;;;;;;;;5137930;27;20198;-62
2023/06/03 12:26:19;;;;;;;1.92;1.30;;;;;;;;;;5137644;27;20198;-62
2023/06/03 12:28:48;;;;;;;1.30;1.10;;;;;;;;;;5137127;27;20210;-63
2023/06/03 12:31:16;;;;;;;2.00;1.30;;;;;;;;;;5137368;27;20202;-62
2023/06/03 12:33:44;;;;;;;1.38;1.20;;;;;;;;;;5136987;27;20222;-63
2023/06/03 12:36:13;;;;;;;1.27;1.08;;;;;;;;;;5136571;27;20626;-64
2023/06/03 12:38:58;;;;;;;2.17;1.02;;;;;;;;;;5136958;27;20594;-63
2023/06/03 12:41:29;;;;;;;2.65;1.48;;;;;;;;;;5136186;27;20202;-63
2023/06/03 12:44:00;;;;;;;2.25;1.23;;;;;;;;;;5137046;27;20199;-62
2023/06/03 12:46:28;;;;;;;2.15;1.20;;;;;;;;;;5136022;27;20270;-62
2023/06/03 12:48:57;;;;;;;1.52;1.20;;;;;;;;;;5136173;27;20263;-63
2023/06/03 12:51:25;;;;;;;1.35;1.10;;;;;;;;;;5136364;27;20198;-62
2023/06/03 12:53:55;;;;;;;1.95;0.90;;;;;;;;;;5136143;27;20233;-63
2023/06/03 12:56:24;;;;;;;1.70;1.33;;;;;;;;;;5136573;27;20309;-63
2023/06/03 12:58:53;;;;;;;1.40;1.23;;;;;;;;;;5136285;27;20230;-63
2023/06/03 13:01:20;;;;;;;1.42;1.20;;;;;;;;;;5136626;27;20206;-62
2023/06/03 13:03:48;;;;;;;1.48;1.20;;;;;;;;;;5135404;27;20240;-63
2023/06/03 13:06:16;;;;;;;1.45;1.10;;;;;;;;;;5136153;27;20594;-63
2023/06/03 13:08:43;;;;;;;1.30;1.20;;;;;;;;;;5136288;27;20214;-63
2023/06/03 13:11:11;;;;;;;1.40;1.05;;;;;;;;;;5136527;27;20206;-63
2023/06/03 13:13:38;;;;;;;2.45;1.30;;;;;;;;;;5135930;27;20230;-63
2023/06/03 13:16:07;;;;;;;1.35;1.00;;;;;;;;;;5136607;27;20297;-63
2023/06/03 13:18:35;;;;;;;2.25;1.13;;;;;;;;;;5135820;27;20198;-63
2023/06/03 13:21:02;;;;;;;1.50;1.00;;;;;;;;;;5135095;27;20205;-63
2023/06/03 13:23:29;;;;;;;1.90;1.10;;;;;;;;;;5135974;27;20258;-62
2023/06/03 13:25:57;;;;;;;2.63;1.20;;;;;;;;;;5135221;27;20748;-63
2023/06/03 13:28:25;;;;;;;1.45;1.13;;;;;;;;;;5135443;28;20570;-64
2023/06/03 13:30:52;;;;;;;1.45;1.13;;;;;;;;;;5135707;28;20598;-64
2023/06/03 13:33:21;;;;;;;1.20;1.00;;;;;;;;;;5135711;28;20225;-63
2023/06/03 13:35:49;;;;;;;1.20;1.10;;;;;;;;;;5135494;28;20688;-63
2023/06/03 13:38:16;;;;;;;1.02;0.93;;;;;;;;;;5135981;28;20301;-62
2023/06/03 13:40:43;;;;;;;1.77;1.00;;;;;;;;;;5135976;28;20556;-63
2023/06/03 13:43:11;;;;;;;1.20;1.10;;;;;;;;;;5136087;28;20202;-62
2023/06/03 13:45:38;;;;;;;1.48;1.15;;;;;;;;;;5136523;28;20213;-63
2023/06/03 13:48:06;;;;;;;1.20;1.10;;;;;;;;;;5136472;28;20602;-63
2023/06/03 13:50:35;;;;;;;1.45;1.20;;;;;;;;;;5136277;28;20209;-64
2023/06/03 13:53:02;;;;;;;1.23;1.00;;;;;;;;;;5134871;28;20316;-63
2023/06/03 13:55:30;;;;;;;1.30;1.00;;;;;;;;;;5135227;28;20201;-63
2023/06/03 13:57:57;;;;;;;1.92;0.95;;;;;;;;;;5135239;28;20575;-63
2023/06/03 14:00:25;;;;;;;1.13;1.05;;;;;;;;;;5135471;28;20210;-63
2023/06/03 14:02:52;;;;;;;1.77;1.13;;;;;;;;;;5135388;28;20194;-63
2023/06/03 14:05:20;;;;;;;1.42;1.02;;;;;;;;;;5135850;28;20601;-63
2023/06/03 14:07:51;;;;;;;1.88;1.23;;;;;;;;;;5135422;28;20230;-63
2023/06/03 14:10:18;;;;;;;1.75;1.00;;;;;;;;;;5134657;28;20209;-63
2023/06/03 14:12:45;;;;;;;1.48;1.10;;;;;;;;;;5135466;28;20617;-64
2023/06/03 14:15:12;;;;;;;1.48;0.90;;;;;;;;;;5134379;28;20202;-63
2023/06/03 14:17:41;;;;;;;1.27;1.02;;;;;;;;;;5137288;27;20210;-63
2023/06/03 14:20:08;;;;;;;1.50;1.17;;;;;;;;;;5138833;27;20285;-62
2023/06/03 14:22:36;;;;;;;1.85;0.90;;;;;;;;;;5138391;27;20198;-62
2023/06/03 14:25:04;;;;;;;1.10;1.00;;;;;;;;;;5138720;27;20194;-63
2023/06/03 14:27:32;;;;;;;1.33;1.00;;;;;;;;;;5139431;27;20210;-63
2023/06/03 14:29:59;;;;;;;1.73;1.10;;;;;;;;;;5139052;27;20509;-65
2023/06/03 14:32:27;;;;;;;3.08;0.95;;;;;;;;;;5139489;27;20194;-62
2023/06/03 14:34:54;;;;;;;2.72;1.27;;;;;;;;;;5138525;27;20238;-63
2023/06/03 14:37:21;;;;;;;1.48;1.05;;;;;;;;;;5139479;27;20199;-63
2023/06/03 14:39:49;;;;;;;1.30;0.90;;;;;;;;;;5139071;27;20715;-64
2023/06/03 14:42:17;;;;;;;1.30;1.05;;;;;;;;;;5139532;27;20195;-64
2023/06/03 14:44:45;;;;;;;1.95;0.90;;;;;;;;;;5139391;27;20205;-63
2023/06/03 14:47:12;;;;;;;1.77;1.00;;;;;;;;;;5139139;27;20570;-63
2023/06/03 14:49:40;;;;;;;2.25;0.93;;;;;;;;;;5139594;27;20199;-64
2023/06/03 14:52:07;;;;;;;1.10;1.00;;;;;;;;;;5138993;27;20213;-64
2023/06/03 14:54:34;;;;;;;1.40;1.00;;;;;;;;;;5139005;27;20589;-64